createdAt,value
2018-03-17T00:00:13.045Z,0.00
2018-03-17T00:01:13.078Z,0.00
2018-03-17T00:02:12.879Z,0.00
2018-03-17T00:03:12.872Z,0.00
2018-03-17T00:04:12.720Z,0.00
2018-03-17T00:05:12.657Z,0.00
2018-03-17T00:06:12.542Z,0.00
2018-03-17T00:07:12.564Z,0.00
2018-03-17T00:08:12.392Z,0.00
2018-03-17T00:09:12.367Z,0.00
2018-03-17T00:10:12.213Z,0.00
2018-03-17T00:11:12.144Z,0.00
2018-03-17T00:12:12.059Z,0.00
2018-03-17T00:13:12.023Z,0.00
2018-03-17T00:14:11.875Z,0.00
2018-03-17T00:15:11.904Z,0.00
2018-03-17T00:16:11.745Z,0.00
2018-03-17T00:17:11.662Z,0.00
2018-03-17T00:18:11.558Z,0.00
2018-03-17T00:19:11.519Z,0.00
2018-03-17T00:20:11.385Z,0.00
2018-03-17T00:21:11.324Z,0.00
2018-03-17T00:22:11.248Z,0.00
2018-03-17T00:23:11.275Z,0.00
2018-03-17T00:24:11.037Z,0.00
2018-03-17T00:25:10.984Z,0.00
2018-03-17T00:26:10.869Z,0.00
2018-03-17T00:27:10.859Z,0.00
2018-03-17T00:28:10.732Z,0.00
2018-03-17T00:29:10.632Z,0.00
2018-03-17T00:30:10.527Z,0.00
2018-03-17T00:31:10.572Z,0.00
2018-03-17T00:32:10.383Z,0.00
2018-03-17T00:33:10.385Z,0.00
2018-03-17T00:34:10.219Z,0.00
2018-03-17T00:35:10.188Z,0.00
2018-03-17T00:36:10.046Z,0.00
2018-03-17T00:37:10.004Z,0.00
2018-03-17T00:38:09.868Z,0.00
2018-03-17T00:39:09.959Z,0.00
2018-03-17T00:40:09.696Z,0.00
2018-03-17T00:41:09.722Z,0.00
2018-03-17T00:42:09.539Z,0.00
2018-03-17T00:43:09.530Z,0.00
2018-03-17T00:44:09.385Z,0.00
2018-03-17T00:45:09.347Z,0.00
2018-03-17T00:46:09.197Z,0.00
2018-03-17T00:47:09.247Z,0.00
2018-03-17T00:48:09.033Z,0.00
2018-03-17T00:49:09.085Z,0.00
2018-03-17T00:50:08.861Z,0.00
2018-03-17T00:51:08.794Z,0.00
2018-03-17T00:52:08.813Z,0.00
2018-03-17T00:53:08.725Z,0.00
2018-03-17T00:54:08.547Z,0.00
2018-03-17T00:55:08.477Z,0.00
2018-03-17T00:56:08.367Z,0.00
2018-03-17T00:57:08.398Z,0.00
2018-03-17T00:58:08.204Z,0.00
2018-03-17T00:59:08.239Z,0.00
2018-03-17T01:00:08.029Z,0.00
2018-03-17T01:01:07.980Z,0.00
2018-03-17T01:02:07.858Z,0.00
2018-03-17T01:03:07.820Z,0.00
2018-03-17T01:04:07.696Z,0.00
2018-03-17T01:05:07.763Z,0.00
2018-03-17T01:06:07.532Z,0.00
2018-03-17T01:07:07.553Z,0.00
2018-03-17T01:08:07.361Z,0.00
2018-03-17T01:09:07.383Z,0.00
2018-03-17T01:10:07.188Z,0.00
2018-03-17T01:11:07.156Z,0.00
2018-03-17T01:12:07.075Z,0.00
2018-03-17T01:13:07.063Z,0.00
2018-03-17T01:14:06.874Z,0.00
2018-03-17T01:15:06.913Z,0.00
2018-03-17T01:16:06.688Z,0.00
2018-03-17T01:17:06.679Z,0.00
2018-03-17T01:18:06.522Z,0.00
2018-03-17T01:19:06.495Z,0.00
2018-03-17T01:20:06.386Z,0.00
2018-03-17T01:21:06.340Z,0.00
2018-03-17T01:22:06.192Z,0.00
2018-03-17T01:23:06.250Z,0.00
2018-03-17T01:24:06.018Z,0.00
2018-03-17T01:25:06.025Z,0.00
2018-03-17T01:26:05.899Z,0.00
2018-03-17T01:27:06.308Z,0.00
2018-03-17T01:28:05.722Z,0.00
2018-03-17T01:29:05.818Z,0.00
2018-03-17T01:30:05.523Z,0.00
2018-03-17T01:31:05.584Z,0.00
2018-03-17T01:32:05.345Z,0.00
2018-03-17T01:33:05.351Z,0.00
2018-03-17T01:34:05.190Z,0.00
2018-03-17T01:35:05.161Z,0.00
2018-03-17T01:36:05.049Z,0.00
2018-03-17T01:37:04.974Z,0.00
2018-03-17T01:38:04.848Z,0.00
2018-03-17T01:39:04.884Z,0.00
2018-03-17T01:40:04.679Z,0.00
2018-03-17T01:41:04.719Z,0.00
2018-03-17T01:42:04.634Z,0.00
2018-03-17T01:43:04.510Z,0.00
2018-03-17T01:44:04.344Z,0.00
2018-03-17T01:45:04.418Z,0.00
2018-03-17T01:46:04.212Z,0.00
2018-03-17T01:47:04.220Z,0.00
2018-03-17T01:48:04.020Z,0.00
2018-03-17T01:49:04.031Z,0.00
2018-03-17T01:50:03.840Z,0.00
2018-03-17T01:51:03.844Z,0.00
2018-03-17T01:52:03.701Z,0.00
2018-03-17T01:53:03.641Z,0.00
2018-03-17T01:54:03.519Z,0.00
2018-03-17T01:55:03.556Z,0.00
2018-03-17T01:56:03.352Z,0.00
2018-03-17T01:57:03.396Z,0.00
2018-03-17T01:58:03.182Z,0.00
2018-03-17T01:59:03.096Z,0.00
2018-03-17T02:00:03.017Z,0.00
2018-03-17T02:01:02.981Z,0.00
2018-03-17T02:02:02.906Z,0.00
2018-03-17T02:03:02.793Z,0.00
2018-03-17T02:04:02.673Z,0.00
2018-03-17T02:05:03.626Z,0.00
2018-03-17T02:06:02.498Z,0.00
2018-03-17T02:07:02.538Z,0.00
2018-03-17T02:08:02.333Z,0.00
2018-03-17T02:09:02.329Z,0.00
2018-03-17T02:10:02.165Z,0.00
2018-03-17T02:11:02.124Z,0.00
2018-03-17T02:12:02.004Z,0.00
2018-03-17T02:13:01.976Z,0.00
2018-03-17T02:14:01.830Z,0.00
2018-03-17T02:15:01.849Z,0.00
2018-03-17T02:16:01.669Z,0.00
2018-03-17T02:17:01.653Z,0.00
2018-03-17T02:18:01.514Z,0.00
2018-03-17T02:19:01.454Z,0.00
2018-03-17T02:20:01.327Z,0.00
2018-03-17T02:21:01.273Z,0.00
2018-03-17T02:22:01.166Z,0.00
2018-03-17T02:23:01.208Z,0.00
2018-03-17T02:24:00.997Z,0.00
2018-03-17T02:25:00.985Z,0.00
2018-03-17T02:26:00.831Z,0.00
2018-03-17T02:27:00.795Z,0.00
2018-03-17T02:28:00.676Z,0.00
2018-03-17T02:29:00.746Z,0.00
2018-03-17T02:30:00.492Z,0.00
2018-03-17T02:31:00.513Z,0.00
2018-03-17T02:32:00.353Z,0.00
2018-03-17T02:33:00.357Z,0.00
2018-03-17T02:34:00.150Z,0.00
2018-03-17T02:35:00.257Z,0.00
2018-03-17T02:35:59.982Z,0.00
2018-03-17T02:36:59.948Z,0.00
2018-03-17T02:37:59.865Z,0.00
2018-03-17T02:38:59.867Z,0.00
2018-03-17T02:40:00.167Z,0.00
2018-03-17T02:40:59.658Z,0.00
2018-03-17T02:41:59.478Z,0.00
2018-03-17T02:42:59.492Z,0.00
2018-03-17T02:43:59.322Z,0.00
2018-03-17T02:44:59.277Z,0.00
2018-03-17T02:45:59.143Z,0.00
2018-03-17T02:46:59.124Z,0.00
2018-03-17T02:47:58.973Z,0.00
2018-03-17T02:48:59.038Z,0.00
2018-03-17T02:49:58.815Z,0.00
2018-03-17T02:50:58.801Z,0.00
2018-03-17T02:51:58.649Z,0.00
2018-03-17T02:52:58.641Z,0.00
2018-03-17T02:53:58.502Z,0.00
2018-03-17T02:54:58.419Z,0.00
2018-03-17T02:55:58.307Z,0.00
2018-03-17T02:56:58.243Z,0.00
2018-03-17T02:57:58.153Z,0.00
2018-03-17T02:58:58.164Z,0.00
2018-03-17T02:59:57.965Z,0.00
2018-03-17T03:00:57.948Z,0.00
2018-03-17T03:01:57.809Z,0.00
2018-03-17T03:02:57.750Z,0.00
2018-03-17T03:03:57.659Z,0.00
2018-03-17T03:04:57.683Z,0.00
2018-03-17T03:05:57.460Z,0.00
2018-03-17T03:06:57.485Z,0.00
2018-03-17T03:07:57.292Z,0.00
2018-03-17T03:08:57.278Z,0.00
2018-03-17T03:09:57.158Z,0.00
2018-03-17T03:10:57.092Z,0.00
2018-03-17T03:11:56.955Z,0.00
2018-03-17T03:12:58.992Z,0.00
2018-03-17T03:13:56.792Z,0.00
2018-03-17T03:14:57.796Z,0.00
2018-03-17T03:15:56.636Z,0.00
2018-03-17T03:16:56.613Z,0.00
2018-03-17T03:17:56.448Z,0.00
2018-03-17T03:18:56.425Z,0.00
2018-03-17T03:19:56.278Z,0.00
2018-03-17T03:20:56.273Z,0.00
2018-03-17T03:21:56.131Z,0.00
2018-03-17T03:22:56.144Z,0.00
2018-03-17T03:23:55.946Z,0.00
2018-03-17T03:24:55.949Z,0.00
2018-03-17T03:25:55.845Z,0.00
2018-03-17T03:26:55.703Z,0.00
2018-03-17T03:27:55.624Z,0.00
2018-03-17T03:28:55.536Z,0.00
2018-03-17T03:29:55.435Z,0.00
2018-03-17T03:30:55.411Z,0.00
2018-03-17T03:31:55.264Z,0.00
2018-03-17T03:32:55.285Z,0.00
2018-03-17T03:33:55.104Z,0.00
2018-03-17T03:34:55.096Z,0.00
2018-03-17T03:35:54.964Z,0.00
2018-03-17T03:36:54.903Z,0.00
2018-03-17T03:37:54.768Z,0.00
2018-03-17T03:38:54.739Z,0.00
2018-03-17T03:39:54.594Z,0.00
2018-03-17T03:40:54.667Z,0.00
2018-03-17T03:41:54.468Z,0.00
2018-03-17T03:42:54.431Z,0.00
2018-03-17T03:43:54.257Z,0.00
2018-03-17T03:44:54.191Z,0.00
2018-03-17T03:45:54.086Z,0.00
2018-03-17T03:46:54.057Z,0.00
2018-03-17T03:47:53.939Z,0.00
2018-03-17T03:48:53.968Z,0.00
2018-03-17T03:49:53.751Z,0.00
2018-03-17T03:50:53.764Z,0.00
2018-03-17T03:51:53.607Z,0.00
2018-03-17T03:52:53.575Z,0.00
2018-03-17T03:53:53.417Z,0.00
2018-03-17T03:54:53.390Z,0.00
2018-03-17T03:55:53.253Z,0.00
2018-03-17T03:56:53.240Z,0.00
2018-03-17T03:57:53.117Z,0.00
2018-03-17T03:58:53.100Z,0.00
2018-03-17T03:59:52.912Z,0.00
2018-03-17T04:00:52.949Z,0.00
2018-03-17T04:01:52.759Z,0.00
2018-03-17T04:02:52.762Z,0.00
2018-03-17T04:03:52.578Z,0.00
2018-03-17T04:04:52.534Z,0.00
2018-03-17T04:05:52.408Z,0.00
2018-03-17T04:06:52.368Z,0.00
2018-03-17T04:07:52.263Z,0.00
2018-03-17T04:08:52.167Z,0.00
2018-03-17T04:09:52.074Z,0.00
2018-03-17T04:10:52.059Z,0.00
2018-03-17T04:11:51.899Z,0.00
2018-03-17T04:12:51.894Z,0.00
2018-03-17T04:13:51.737Z,0.00
2018-03-17T04:14:51.778Z,0.00
2018-03-17T04:15:51.569Z,0.00
2018-03-17T04:16:51.589Z,0.00
2018-03-17T04:17:51.493Z,0.00
2018-03-17T04:18:51.434Z,0.00
2018-03-17T04:19:51.222Z,0.00
2018-03-17T04:20:51.225Z,0.00
2018-03-17T04:21:51.052Z,0.00
2018-03-17T04:22:51.011Z,0.00
2018-03-17T04:23:50.891Z,0.00
2018-03-17T04:24:50.926Z,0.00
2018-03-17T04:25:50.727Z,0.00
2018-03-17T04:26:50.732Z,0.00
2018-03-17T04:27:50.574Z,0.00
2018-03-17T04:28:50.541Z,0.00
2018-03-17T04:29:50.382Z,0.00
2018-03-17T04:30:50.347Z,0.00
2018-03-17T04:31:50.219Z,0.00
2018-03-17T04:32:51.214Z,0.00
2018-03-17T04:33:50.040Z,0.00
2018-03-17T04:34:50.068Z,0.00
2018-03-17T04:35:49.887Z,0.00
2018-03-17T04:36:49.880Z,0.00
2018-03-17T04:37:49.723Z,0.00
2018-03-17T04:38:49.676Z,0.00
2018-03-17T04:39:49.548Z,0.00
2018-03-17T04:40:49.495Z,0.00
2018-03-17T04:41:49.395Z,0.00
2018-03-17T04:42:49.425Z,0.00
2018-03-17T04:43:49.199Z,0.00
2018-03-17T04:44:49.263Z,0.00
2018-03-17T04:45:49.029Z,0.00
2018-03-17T04:46:49.010Z,0.00
2018-03-17T04:47:48.865Z,0.00
2018-03-17T04:48:48.856Z,0.00
2018-03-17T04:49:48.704Z,0.00
2018-03-17T04:50:48.735Z,0.00
2018-03-17T04:51:48.525Z,0.00
2018-03-17T04:52:48.580Z,0.00
2018-03-17T04:53:48.382Z,0.00
2018-03-17T04:54:48.363Z,0.00
2018-03-17T04:55:48.185Z,0.00
2018-03-17T04:58:30.065Z,0.00
2018-03-17T04:59:30.102Z,0.00
2018-03-17T05:00:29.896Z,0.00
2018-03-17T05:01:29.980Z,0.00
2018-03-17T05:02:29.746Z,0.00
2018-03-17T05:03:30.318Z,0.00
2018-03-17T05:04:29.585Z,0.00
2018-03-17T05:05:29.592Z,0.00
2018-03-17T05:06:29.390Z,0.00
2018-03-17T05:07:29.396Z,0.00
2018-03-17T05:08:29.222Z,0.00
2018-03-17T05:09:29.231Z,0.00
2018-03-17T05:10:29.052Z,0.00
2018-03-17T05:11:29.009Z,0.00
2018-03-17T05:12:28.906Z,0.00
2018-03-17T05:13:28.917Z,0.00
2018-03-17T05:14:28.748Z,0.00
2018-03-17T05:15:28.742Z,0.00
2018-03-17T05:16:28.586Z,0.00
2018-03-17T05:17:28.535Z,0.00
2018-03-17T05:18:28.376Z,0.00
2018-03-17T05:19:28.374Z,0.00
2018-03-17T05:20:28.217Z,0.00
2018-03-17T05:21:28.143Z,0.00
2018-03-17T05:22:28.110Z,4.00
2018-03-17T05:23:28.072Z,0.00
2018-03-17T05:24:27.894Z,4.00
2018-03-17T05:25:27.977Z,0.00
2018-03-17T05:26:27.708Z,4.00
2018-03-17T05:27:27.693Z,4.00
2018-03-17T05:28:27.526Z,8.00
2018-03-17T05:29:27.521Z,4.00
2018-03-17T05:30:27.361Z,8.00
2018-03-17T05:31:27.398Z,8.00
2018-03-17T05:32:27.197Z,12.00
2018-03-17T05:33:27.207Z,12.00
2018-03-17T05:34:27.027Z,12.00
2018-03-17T05:35:27.051Z,16.00
2018-03-17T05:36:26.869Z,20.00
2018-03-17T05:37:26.824Z,20.00
2018-03-17T05:38:26.682Z,24.00
2018-03-17T05:39:26.646Z,28.00
2018-03-17T05:40:26.542Z,32.00
2018-03-17T05:41:26.554Z,36.00
2018-03-17T05:42:26.349Z,40.00
2018-03-17T05:43:26.354Z,44.00
2018-03-17T05:44:26.179Z,48.00
2018-03-17T05:45:26.206Z,52.00
2018-03-17T05:46:26.010Z,52.00
2018-03-17T05:47:25.972Z,56.00
2018-03-17T05:48:25.836Z,60.00
2018-03-17T05:49:25.879Z,64.00
2018-03-17T05:50:25.695Z,68.00
2018-03-17T05:51:25.686Z,76.00
2018-03-17T05:52:25.510Z,80.00
2018-03-17T05:53:25.493Z,88.00
2018-03-17T05:54:25.335Z,96.00
2018-03-17T05:55:25.439Z,100.00
2018-03-17T05:56:25.173Z,112.00
2018-03-17T05:57:25.113Z,120.00
2018-03-17T05:58:25.010Z,128.00
2018-03-17T05:59:25.020Z,144.00
2018-03-17T06:00:24.826Z,160.00
2018-03-17T06:01:24.867Z,172.00
2018-03-17T06:02:24.650Z,188.00
2018-03-17T06:03:24.638Z,204.00
2018-03-17T06:04:24.486Z,212.00
2018-03-17T06:05:24.451Z,216.00
2018-03-17T06:06:24.348Z,220.00
2018-03-17T06:07:24.375Z,228.00
2018-03-17T06:08:24.148Z,244.00
2018-03-17T06:09:24.164Z,264.00
2018-03-17T06:10:23.985Z,284.00
2018-03-17T06:11:24.006Z,300.00
2018-03-17T06:12:23.818Z,324.00
2018-03-17T06:13:23.789Z,336.00
2018-03-17T06:14:23.635Z,344.00
2018-03-17T06:15:23.595Z,360.00
2018-03-17T06:16:23.510Z,380.00
2018-03-17T06:17:23.443Z,404.00
2018-03-17T06:18:23.299Z,428.00
2018-03-17T06:19:23.314Z,448.00
2018-03-17T06:20:23.131Z,452.00
2018-03-17T06:21:23.119Z,436.00
2018-03-17T06:22:22.996Z,416.00
2018-03-17T06:23:22.930Z,384.00
2018-03-17T06:24:22.791Z,384.00
2018-03-17T06:25:22.839Z,380.00
2018-03-17T06:26:22.624Z,360.00
2018-03-17T06:27:22.688Z,360.00
2018-03-17T06:28:22.453Z,380.00
2018-03-17T06:29:22.457Z,392.00
2018-03-17T06:30:22.294Z,416.00
2018-03-17T06:31:22.273Z,432.00
2018-03-17T06:32:22.147Z,436.00
2018-03-17T06:33:22.103Z,424.00
2018-03-17T06:34:21.947Z,428.00
2018-03-17T06:35:21.985Z,416.00
2018-03-17T06:36:21.773Z,404.00
2018-03-17T06:37:21.786Z,420.00
2018-03-17T06:38:21.636Z,428.00
2018-03-17T06:39:21.602Z,460.00
2018-03-17T06:40:21.436Z,492.00
2018-03-17T06:41:21.415Z,528.00
2018-03-17T06:42:21.268Z,560.00
2018-03-17T06:43:21.245Z,592.00
2018-03-17T06:44:21.107Z,632.00
2018-03-17T06:45:21.134Z,684.00
2018-03-17T06:46:20.923Z,736.00
2018-03-17T06:47:20.943Z,788.00
2018-03-17T06:48:20.782Z,816.00
2018-03-17T06:49:20.760Z,820.00
2018-03-17T06:50:20.592Z,896.00
2018-03-17T06:51:20.560Z,812.00
2018-03-17T06:52:20.419Z,848.00
2018-03-17T06:53:20.392Z,856.00
2018-03-17T06:54:20.260Z,876.00
2018-03-17T06:55:20.281Z,784.00
2018-03-17T06:56:20.088Z,872.00
2018-03-17T06:57:20.087Z,956.00
2018-03-17T06:58:19.933Z,1064.00
2018-03-17T06:59:19.921Z,968.00
2018-03-17T07:00:19.749Z,1020.00
2018-03-17T07:01:19.701Z,952.00
2018-03-17T07:02:19.572Z,1004.00
2018-03-17T07:03:19.668Z,996.00
2018-03-17T07:04:19.407Z,912.00
2018-03-17T07:05:19.420Z,912.00
2018-03-17T07:06:19.248Z,888.00
2018-03-17T07:07:19.170Z,828.00
2018-03-17T07:08:19.069Z,832.00
2018-03-17T07:09:19.058Z,792.00
2018-03-17T07:10:18.906Z,776.00
2018-03-17T07:11:18.841Z,752.00
2018-03-17T07:12:18.787Z,696.00
2018-03-17T07:13:18.759Z,724.00
2018-03-17T07:14:18.586Z,716.00
2018-03-17T07:15:18.622Z,772.00
2018-03-17T07:16:18.412Z,804.00
2018-03-17T07:17:18.377Z,824.00
2018-03-17T07:18:18.239Z,820.00
2018-03-17T07:19:18.179Z,860.00
2018-03-17T07:20:18.084Z,956.00
2018-03-17T07:21:18.086Z,940.00
2018-03-17T07:22:17.874Z,836.00
2018-03-17T07:25:00.098Z,856.00
2018-03-17T07:26:00.137Z,884.00
2018-03-17T07:26:59.903Z,824.00
2018-03-17T07:27:59.930Z,776.00
2018-03-17T07:28:59.752Z,716.00
2018-03-17T07:29:59.713Z,744.00
2018-03-17T07:30:59.588Z,844.00
2018-03-17T07:31:59.522Z,936.00
2018-03-17T07:32:59.416Z,1088.00
2018-03-17T07:33:59.440Z,1204.00
2018-03-17T07:34:59.239Z,1252.00
2018-03-17T07:35:59.328Z,1292.00
2018-03-17T07:36:59.071Z,1276.00
2018-03-17T07:37:59.054Z,1308.00
2018-03-17T07:38:58.886Z,1352.00
2018-03-17T07:39:58.867Z,1308.00
2018-03-17T07:40:58.736Z,1300.00
2018-03-17T07:41:58.694Z,1428.00
2018-03-17T07:42:58.550Z,1484.00
2018-03-17T07:43:58.582Z,1496.00
2018-03-17T07:44:59.254Z,1492.00
2018-03-17T07:45:58.390Z,1484.00
2018-03-17T07:46:58.710Z,1356.00
2018-03-17T07:47:58.202Z,1472.00
2018-03-17T07:48:58.050Z,1552.00
2018-03-17T07:49:58.013Z,1528.00
2018-03-17T07:50:57.869Z,1604.00
2018-03-17T07:51:57.858Z,1640.00
2018-03-17T07:52:57.717Z,1700.00
2018-03-17T07:53:57.737Z,1696.00
2018-03-17T07:54:57.532Z,1652.00
2018-03-17T07:55:57.606Z,1620.00
2018-03-17T07:56:57.399Z,1608.00
2018-03-17T07:57:57.345Z,1624.00
2018-03-17T07:58:57.214Z,1592.00
2018-03-17T07:59:57.148Z,1568.00
2018-03-17T08:00:57.060Z,1524.00
2018-03-17T08:01:57.118Z,1404.00
2018-03-17T08:02:56.904Z,1408.00
2018-03-17T08:03:56.883Z,1516.00
2018-03-17T08:04:56.692Z,1452.00
2018-03-17T08:05:56.689Z,1516.00
2018-03-17T08:06:56.512Z,1548.00
2018-03-17T08:07:56.527Z,1668.00
2018-03-17T08:08:56.399Z,1672.00
2018-03-17T08:09:56.393Z,1788.00
2018-03-17T08:10:56.184Z,1740.00
2018-03-17T08:11:56.210Z,1684.00
2018-03-17T08:12:56.056Z,1556.00
2018-03-17T08:13:56.032Z,1600.00
2018-03-17T08:14:55.934Z,1632.00
2018-03-17T08:15:55.828Z,1576.00
2018-03-17T08:16:55.668Z,1504.00
2018-03-17T08:17:55.676Z,1536.00
2018-03-17T08:18:55.597Z,1568.00
2018-03-17T08:19:55.539Z,1588.00
2018-03-17T08:20:55.349Z,1676.00
2018-03-17T08:21:55.354Z,1640.00
2018-03-17T08:22:55.202Z,1696.00
2018-03-17T08:23:55.155Z,1756.00
2018-03-17T08:24:55.009Z,1684.00
2018-03-17T08:25:55.002Z,1736.00
2018-03-17T08:26:54.835Z,1800.00
2018-03-17T08:27:54.799Z,1856.00
2018-03-17T08:28:54.698Z,1884.00
2018-03-17T08:29:54.686Z,1960.00
2018-03-17T08:30:54.495Z,2112.00
2018-03-17T08:31:54.546Z,2296.00
2018-03-17T08:32:54.321Z,2408.00
2018-03-17T08:33:54.345Z,2568.00
2018-03-17T08:34:54.159Z,2748.00
2018-03-17T08:35:54.114Z,2852.00
2018-03-17T08:36:53.975Z,2868.00
2018-03-17T08:37:54.031Z,2780.00
2018-03-17T08:38:53.825Z,2600.00
2018-03-17T08:39:53.843Z,2492.00
2018-03-17T08:40:53.647Z,2496.00
2018-03-17T08:41:53.638Z,2632.00
2018-03-17T08:42:53.471Z,2824.00
2018-03-17T08:43:53.707Z,3004.00
2018-03-17T08:44:53.449Z,3128.00
2018-03-17T08:45:53.799Z,3232.00
2018-03-17T08:46:53.146Z,3540.00
2018-03-17T08:47:53.180Z,3460.00
2018-03-17T08:48:52.967Z,3452.00
2018-03-17T08:49:53.001Z,3560.00
2018-03-17T08:50:52.800Z,3676.00
2018-03-17T08:51:52.783Z,3696.00
2018-03-17T08:52:52.653Z,3956.00
2018-03-17T08:55:46.125Z,4216.00
2018-03-17T08:56:46.782Z,4196.00
2018-03-17T08:57:45.916Z,3884.00
2018-03-17T08:58:45.900Z,3796.00
2018-03-17T08:59:45.815Z,3632.00
2018-03-17T09:02:27.579Z,3656.00
2018-03-17T09:03:48.478Z,3748.00
2018-03-17T09:04:27.444Z,3832.00
2018-03-17T09:05:27.409Z,3960.00
2018-03-17T09:06:27.305Z,3992.00
2018-03-17T09:07:27.298Z,4016.00
2018-03-17T09:08:27.102Z,4024.00
2018-03-17T09:09:27.136Z,4048.00
2018-03-17T09:10:27.033Z,4092.00
2018-03-17T09:11:26.906Z,4152.00
2018-03-17T09:12:26.738Z,4192.00
2018-03-17T09:13:26.810Z,4144.00
2018-03-17T09:14:26.581Z,4140.00
2018-03-17T09:15:26.514Z,4188.00
2018-03-17T09:16:26.428Z,4080.00
2018-03-17T09:17:26.431Z,4216.00
2018-03-17T09:18:26.239Z,4160.00
2018-03-17T09:19:26.236Z,4096.00
2018-03-17T09:20:26.084Z,4320.00
2018-03-17T09:21:26.049Z,4312.00
2018-03-17T09:22:25.908Z,4184.00
2018-03-17T09:23:25.855Z,4156.00
2018-03-17T09:24:25.727Z,4068.00
2018-03-17T09:25:25.708Z,4040.00
2018-03-17T09:29:17.202Z,3980.00
2018-03-17T09:30:17.020Z,4080.00
2018-03-17T09:31:17.109Z,4372.00
2018-03-17T09:32:16.850Z,4424.00
2018-03-17T09:33:16.815Z,4132.00
2018-03-17T09:34:16.671Z,4460.00
2018-03-17T09:35:16.624Z,4580.00
2018-03-17T09:36:16.546Z,4832.00
2018-03-17T09:37:16.535Z,4732.00
2018-03-17T09:38:16.326Z,4676.00
2018-03-17T09:39:16.351Z,4580.00
2018-03-17T09:40:16.157Z,4656.00
2018-03-17T09:41:16.184Z,4728.00
2018-03-17T09:42:16.005Z,4632.00
2018-03-17T09:43:15.981Z,4988.00
2018-03-17T09:44:15.824Z,5192.00
2018-03-17T09:45:15.864Z,5148.00
2018-03-17T09:46:15.671Z,5636.00
2018-03-17T09:47:15.685Z,5788.00
2018-03-17T09:48:16.150Z,5612.00
2018-03-17T09:49:15.487Z,5268.00
2018-03-17T09:50:15.339Z,5404.00
2018-03-17T09:51:16.163Z,5640.00
2018-03-17T09:52:15.162Z,5168.00
2018-03-17T09:53:15.154Z,5152.00
2018-03-17T09:54:14.978Z,4916.00
2018-03-17T09:55:15.025Z,4904.00
2018-03-17T09:56:14.871Z,5068.00
2018-03-17T09:57:14.816Z,5132.00
2018-03-17T09:58:14.689Z,5176.00
2018-03-17T09:59:14.628Z,5608.00
2018-03-17T10:00:14.472Z,5500.00
2018-03-17T10:01:14.435Z,5608.00
2018-03-17T10:02:14.340Z,5208.00
2018-03-17T10:03:14.287Z,5724.00
2018-03-17T10:04:14.154Z,6132.00
2018-03-17T10:05:14.152Z,6272.00
2018-03-17T10:06:13.968Z,6324.00
2018-03-17T10:07:13.988Z,6384.00
2018-03-17T10:08:13.790Z,6360.00
2018-03-17T10:09:13.816Z,6068.00
2018-03-17T10:10:13.632Z,6376.00
2018-03-17T10:11:13.592Z,6056.00
2018-03-17T10:12:13.467Z,5816.00
2018-03-17T10:13:13.435Z,5564.00
2018-03-17T10:14:13.297Z,5452.00
2018-03-17T10:15:13.312Z,5284.00
2018-03-17T10:16:13.113Z,4704.00
2018-03-17T10:17:13.111Z,4844.00
2018-03-17T10:18:13.088Z,5564.00
2018-03-17T10:19:12.913Z,5576.00
2018-03-17T10:20:12.787Z,5632.00
2018-03-17T10:21:12.867Z,4928.00
2018-03-17T10:22:12.616Z,5356.00
2018-03-17T10:23:12.913Z,5572.00
2018-03-17T10:24:12.489Z,5024.00
2018-03-17T10:25:12.467Z,5172.00
2018-03-17T10:26:12.328Z,5644.00
2018-03-17T10:27:12.295Z,5864.00
2018-03-17T10:28:12.241Z,5964.00
2018-03-17T10:29:12.231Z,5596.00
2018-03-17T10:30:11.970Z,4956.00
2018-03-17T10:31:11.980Z,5420.00
2018-03-17T10:32:11.800Z,5304.00
2018-03-17T10:34:55.118Z,5724.00
2018-03-17T10:35:53.602Z,5928.00
2018-03-17T10:36:53.433Z,6804.00
2018-03-17T10:37:53.401Z,7092.00
2018-03-17T10:38:53.301Z,7268.00
2018-03-17T10:39:53.250Z,6980.00
2018-03-17T10:40:53.556Z,6548.00
2018-03-17T10:41:53.375Z,7124.00
2018-03-17T10:42:52.921Z,6936.00
2018-03-17T10:43:52.928Z,6560.00
2018-03-17T10:44:52.789Z,6484.00
2018-03-17T10:45:52.720Z,6268.00
2018-03-17T10:46:52.584Z,6376.00
2018-03-17T10:47:52.589Z,5892.00
2018-03-17T10:48:52.410Z,6016.00
2018-03-17T10:49:52.434Z,6192.00
2018-03-17T10:50:52.255Z,6740.00
2018-03-17T10:53:34.094Z,6072.00
2018-03-17T10:54:34.141Z,5676.00
2018-03-17T10:55:33.967Z,5388.00
2018-03-17T10:56:33.945Z,5424.00
2018-03-17T10:57:33.752Z,5760.00
2018-03-17T10:58:33.862Z,5208.00
2018-03-17T10:59:33.605Z,5480.00
2018-03-17T11:00:34.535Z,5948.00
2018-03-17T11:01:33.517Z,5876.00
2018-03-17T11:02:33.387Z,5664.00
2018-03-17T11:03:35.182Z,5160.00
2018-03-17T11:04:33.288Z,4392.00
2018-03-17T11:05:33.091Z,5412.00
2018-03-17T11:06:33.212Z,5564.00
2018-03-17T11:08:58.118Z,6088.00
2018-03-17T11:10:25.133Z,6260.00
2018-03-17T11:11:04.853Z,5964.00
2018-03-17T11:11:57.494Z,4980.00
2018-03-17T11:12:58.284Z,4440.00
2018-03-17T11:13:57.385Z,4652.00
2018-03-17T11:14:57.091Z,4304.00
2018-03-17T11:15:57.108Z,4000.00
2018-03-17T11:16:56.959Z,4260.00
2018-03-17T11:17:56.917Z,3784.00
2018-03-17T11:18:56.747Z,4628.00
2018-03-17T11:19:56.731Z,5076.00
2018-03-17T11:20:56.572Z,4384.00
2018-03-17T11:21:56.601Z,4628.00
2018-03-17T11:22:56.477Z,4368.00
2018-03-17T11:23:56.449Z,4420.00
2018-03-17T11:24:56.239Z,4516.00
2018-03-17T11:25:56.252Z,4548.00
2018-03-17T11:26:56.112Z,4760.00
2018-03-17T11:27:56.062Z,4616.00
2018-03-17T11:28:55.903Z,4068.00
2018-03-17T11:29:55.871Z,4432.00
2018-03-17T11:30:55.734Z,4368.00
2018-03-17T11:31:55.725Z,4136.00
2018-03-17T11:32:55.582Z,4272.00
2018-03-17T11:33:55.629Z,4092.00
2018-03-17T11:34:55.394Z,4316.00
2018-03-17T11:35:55.407Z,4692.00
2018-03-17T11:36:55.297Z,4456.00
2018-03-17T11:37:55.206Z,4656.00
2018-03-17T11:38:55.133Z,4388.00
2018-03-17T11:39:55.018Z,4328.00
2018-03-17T11:40:54.883Z,4588.00
2018-03-17T11:41:54.924Z,4636.00
2018-03-17T11:42:54.749Z,4236.00
2018-03-17T11:43:54.754Z,4340.00
2018-03-17T11:44:54.552Z,4200.00
2018-03-17T11:45:54.550Z,4544.00
2018-03-17T11:46:54.386Z,4836.00
2018-03-17T11:47:54.376Z,4636.00
2018-03-17T11:48:54.738Z,5028.00
2018-03-17T11:49:54.268Z,4880.00
2018-03-17T11:50:54.057Z,4620.00
2018-03-17T11:51:54.080Z,4672.00
2018-03-17T11:52:53.920Z,4744.00
2018-03-17T11:53:53.903Z,4988.00
2018-03-17T11:54:53.691Z,5136.00
2018-03-17T11:55:53.695Z,5148.00
2018-03-17T11:56:53.546Z,4800.00
2018-03-17T11:57:53.540Z,4948.00
2018-03-17T11:58:53.391Z,5500.00
2018-03-17T11:59:53.406Z,5884.00
2018-03-17T12:00:53.189Z,5864.00
2018-03-17T12:01:53.211Z,6420.00
2018-03-17T12:02:53.065Z,6332.00
2018-03-17T12:03:53.052Z,5772.00
2018-03-17T12:04:52.855Z,5640.00
2018-03-17T12:05:52.931Z,5976.00
2018-03-17T12:06:52.703Z,5848.00
2018-03-17T12:07:52.856Z,5372.00
2018-03-17T12:08:52.534Z,4996.00
2018-03-17T12:09:52.562Z,5060.00
2018-03-17T12:10:52.356Z,4940.00
2018-03-17T12:11:52.387Z,4816.00
2018-03-17T12:12:52.191Z,5224.00
2018-03-17T12:13:52.198Z,4984.00
2018-03-17T12:14:52.026Z,4840.00
2018-03-17T12:15:51.977Z,4752.00
2018-03-17T12:16:51.853Z,4664.00
2018-03-17T12:17:51.899Z,4436.00
2018-03-17T12:18:51.688Z,4324.00
2018-03-17T12:19:51.767Z,4108.00
2018-03-17T12:20:51.529Z,3940.00
2018-03-17T12:21:51.504Z,4252.00
2018-03-17T12:22:51.437Z,4128.00
2018-03-17T12:23:51.311Z,4284.00
2018-03-17T12:24:51.206Z,4072.00
2018-03-17T12:25:51.122Z,4032.00
2018-03-17T12:26:51.029Z,4420.00
2018-03-17T12:27:51.038Z,4236.00
2018-03-17T12:28:50.842Z,4072.00
2018-03-17T12:29:50.848Z,4032.00
2018-03-17T12:30:50.685Z,3780.00
2018-03-17T12:31:50.651Z,3852.00
2018-03-17T12:32:50.500Z,3832.00
2018-03-17T12:33:50.458Z,3844.00
2018-03-17T12:34:50.328Z,4064.00
2018-03-17T12:35:50.293Z,3888.00
2018-03-17T12:36:50.154Z,3944.00
2018-03-17T12:37:50.181Z,4148.00
2018-03-17T12:38:49.999Z,4300.00
2018-03-17T12:39:49.994Z,4272.00
2018-03-17T12:40:49.835Z,4372.00
2018-03-17T12:41:49.796Z,4120.00
2018-03-17T12:42:49.650Z,4348.00
2018-03-17T12:43:49.712Z,4056.00
2018-03-17T12:44:49.539Z,4232.00
2018-03-17T12:45:49.553Z,4112.00
2018-03-17T12:46:49.318Z,4272.00
2018-03-17T12:47:49.348Z,4636.00
2018-03-17T12:48:49.162Z,4568.00
2018-03-17T12:49:49.148Z,4724.00
2018-03-17T12:50:48.992Z,4584.00
2018-03-17T12:51:48.967Z,4228.00
2018-03-17T12:52:48.834Z,4400.00
2018-03-17T12:53:48.847Z,4092.00